sensor_id;sensor_type;location;lat;lon;timestamp;pressure;altitude;pressure_sealevel;temperature;humidity
7075;BME280;3578;51.568;6.932;2022-07-12T00:00:37;55431.22;;;-144.14;98.08
7075;BME280;3578;51.568;6.932;2022-07-12T00:03:04;55415.19;;;-144.14;98.26
7075;BME280;3578;51.568;6.932;2022-07-12T00:05:31;55385.09;;;-144.14;98.28
7075;BME280;3578;51.568;6.932;2022-07-12T00:08:00;55377.09;;;-144.14;98.44
7075;BME280;3578;51.568;6.932;2022-07-12T00:10:27;55423.22;;;-144.14;98.15
7075;BME280;3578;51.568;6.932;2022-07-12T00:12:54;55435.25;;;-144.14;98.10
7075;BME280;3578;51.568;6.932;2022-07-12T00:15:22;55338.97;;;-144.14;98.44
7075;BME280;3578;51.568;6.932;2022-07-12T00:17:49;55383.09;;;-144.14;98.43
7075;BME280;3578;51.568;6.932;2022-07-12T00:20:16;55338.97;;;-144.14;98.21
7075;BME280;3578;51.568;6.932;2022-07-12T00:22:43;55363.03;;;-144.14;98.46
7075;BME280;3578;51.568;6.932;2022-07-12T00:25:13;55361.03;;;-144.14;98.51
7075;BME280;3578;51.568;6.932;2022-07-12T00:27:40;55399.13;;;-144.14;98.61
7075;BME280;3578;51.568;6.932;2022-07-12T00:30:09;55349.00;;;-144.14;98.28
7075;BME280;3578;51.568;6.932;2022-07-12T00:32:37;55312.91;;;-144.14;98.25
7075;BME280;3578;51.568;6.932;2022-07-12T00:35:05;55318.94;;;-144.14;98.39
7075;BME280;3578;51.568;6.932;2022-07-12T00:37:32;55330.97;;;-144.14;98.47
7075;BME280;3578;51.568;6.932;2022-07-12T00:40:00;55304.88;;;-144.14;98.25
7075;BME280;3578;51.568;6.932;2022-07-12T00:42:28;55296.88;;;-144.14;98.37
7075;BME280;3578;51.568;6.932;2022-07-12T00:44:55;55260.78;;;-144.14;98.36
7075;BME280;3578;51.568;6.932;2022-07-12T00:47:33;55254.75;;;-144.14;98.39
7075;BME280;3578;51.568;6.932;2022-07-12T00:50:05;55280.81;;;-144.14;98.57
7075;BME280;3578;51.568;6.932;2022-07-12T00:52:33;55260.78;;;-144.14;98.66
7075;BME280;3578;51.568;6.932;2022-07-12T00:55:00;55248.75;;;-144.14;98.82
7075;BME280;3578;51.568;6.932;2022-07-12T00:57:29;55270.81;;;-144.14;98.84
7075;BME280;3578;51.568;6.932;2022-07-12T00:59:56;55234.72;;;-144.14;98.59
7075;BME280;3578;51.568;6.932;2022-07-12T01:02:23;55264.78;;;-144.14;98.61
7075;BME280;3578;51.568;6.932;2022-07-12T01:04:51;55270.81;;;-144.14;98.36
7075;BME280;3578;51.568;6.932;2022-07-12T01:07:19;55228.69;;;-144.14;98.10
7075;BME280;3578;51.568;6.932;2022-07-12T01:09:46;55248.75;;;-144.14;98.07
7075;BME280;3578;51.568;6.932;2022-07-12T01:12:14;55250.75;;;-144.14;98.07
7075;BME280;3578;51.568;6.932;2022-07-12T01:14:43;55224.69;;;-144.14;98.08
7075;BME280;3578;51.568;6.932;2022-07-12T01:17:11;55208.63;;;-144.14;98.12
7075;BME280;3578;51.568;6.932;2022-07-12T01:19:39;55222.66;;;-144.14;98.27
7075;BME280;3578;51.568;6.932;2022-07-12T01:22:09;55174.56;;;-144.14;98.74
7075;BME280;3578;51.568;6.932;2022-07-12T01:24:38;55154.50;;;-144.14;98.80
7075;BME280;3578;51.568;6.932;2022-07-12T01:27:06;55152.50;;;-144.14;98.84
7075;BME280;3578;51.568;6.932;2022-07-12T01:29:33;55150.47;;;-144.14;98.82
7075;BME280;3578;51.568;6.932;2022-07-12T01:32:01;55126.41;;;-144.14;98.83
7075;BME280;3578;51.568;6.932;2022-07-12T01:34:52;55018.16;;;-144.14;98.52
7075;BME280;3578;51.568;6.932;2022-07-12T01:37:20;55182.56;;;-144.14;98.40
7075;BME280;3578;51.568;6.932;2022-07-12T01:39:52;55182.56;;;-144.14;98.20
7075;BME280;3578;51.568;6.932;2022-07-12T01:42:20;55164.53;;;-144.14;98.16
7075;BME280;3578;51.568;6.932;2022-07-12T01:44:48;55202.63;;;-144.14;98.21
7075;BME280;3578;51.568;6.932;2022-07-12T01:47:16;55180.56;;;-144.14;98.19
7075;BME280;3578;51.568;6.932;2022-07-12T01:49:43;55188.59;;;-144.14;98.04
7075;BME280;3578;51.568;6.932;2022-07-12T01:52:11;55150.47;;;-144.14;98.08
7075;BME280;3578;51.568;6.932;2022-07-12T01:54:38;55118.41;;;-144.14;98.05
7075;BME280;3578;51.568;6.932;2022-07-12T01:57:07;55150.47;;;-144.14;97.99
7075;BME280;3578;51.568;6.932;2022-07-12T01:59:36;55118.41;;;-144.14;98.39
7075;BME280;3578;51.568;6.932;2022-07-12T02:02:03;55082.31;;;-144.14;98.72
7075;BME280;3578;51.568;6.932;2022-07-12T02:04:31;55130.44;;;-144.14;98.55
7075;BME280;3578;51.568;6.932;2022-07-12T02:06:58;55088.31;;;-144.14;98.26
7075;BME280;3578;51.568;6.932;2022-07-12T02:09:25;55054.25;;;-144.14;98.56
7075;BME280;3578;51.568;6.932;2022-07-12T02:11:52;55122.41;;;-144.14;98.34
7075;BME280;3578;51.568;6.932;2022-07-12T02:14:21;55114.38;;;-144.14;98.34
7075;BME280;3578;51.568;6.932;2022-07-12T02:16:48;55114.38;;;-144.14;98.24
7075;BME280;3578;51.568;6.932;2022-07-12T02:19:15;55102.34;;;-144.14;98.27
7075;BME280;3578;51.568;6.932;2022-07-12T02:21:42;55066.25;;;-144.14;98.40
7075;BME280;3578;51.568;6.932;2022-07-12T02:24:09;55068.28;;;-144.14;98.50
7075;BME280;3578;51.568;6.932;2022-07-12T02:26:37;55052.22;;;-144.14;98.71
7075;BME280;3578;51.568;6.932;2022-07-12T02:29:06;55002.09;;;-144.14;99.08
7075;BME280;3578;51.568;6.932;2022-07-12T02:31:34;55022.16;;;-144.14;99.18
7075;BME280;3578;51.568;6.932;2022-07-12T02:34:01;55016.13;;;-144.14;99.22
7075;BME280;3578;51.568;6.932;2022-07-12T02:36:29;55024.16;;;-144.14;99.19
7075;BME280;3578;51.568;6.932;2022-07-12T02:38:57;55048.22;;;-144.14;98.98
7075;BME280;3578;51.568;6.932;2022-07-12T02:41:28;55024.16;;;-144.14;98.89
7075;BME280;3578;51.568;6.932;2022-07-12T02:43:55;55052.22;;;-144.14;99.01
7075;BME280;3578;51.568;6.932;2022-07-12T02:46:22;55074.28;;;-144.14;98.74
7075;BME280;3578;51.568;6.932;2022-07-12T02:48:51;55084.31;;;-144.14;98.69
7075;BME280;3578;51.568;6.932;2022-07-12T02:51:18;55054.25;;;-144.14;98.89
7075;BME280;3578;51.568;6.932;2022-07-12T02:53:45;55024.16;;;-144.14;99.09
7075;BME280;3578;51.568;6.932;2022-07-12T02:56:13;55058.25;;;-144.14;99.17
7075;BME280;3578;51.568;6.932;2022-07-12T02:58:40;55028.16;;;-144.14;99.09
7075;BME280;3578;51.568;6.932;2022-07-12T03:01:07;55006.13;;;-144.14;99.21
7075;BME280;3578;51.568;6.932;2022-07-12T03:03:34;55026.16;;;-144.14;99.13
7075;BME280;3578;51.568;6.932;2022-07-12T03:06:03;55022.16;;;-144.14;99.07
7075;BME280;3578;51.568;6.932;2022-07-12T03:08:30;55010.13;;;-144.14;99.44
7075;BME280;3578;51.568;6.932;2022-07-12T03:10:57;54980.03;;;-144.14;99.41
7075;BME280;3578;51.568;6.932;2022-07-12T03:13:24;54958.00;;;-144.14;99.29
7075;BME280;3578;51.568;6.932;2022-07-12T03:15:51;55014.13;;;-144.14;99.34
7075;BME280;3578;51.568;6.932;2022-07-12T03:18:18;55034.19;;;-144.14;99.34
7075;BME280;3578;51.568;6.932;2022-07-12T03:20:46;55030.19;;;-144.14;99.22
7075;BME280;3578;51.568;6.932;2022-07-12T03:23:15;55022.16;;;-144.14;99.17
7075;BME280;3578;51.568;6.932;2022-07-12T03:25:42;55042.22;;;-144.14;99.12
7075;BME280;3578;51.568;6.932;2022-07-12T03:28:09;55002.09;;;-144.14;98.98
7075;BME280;3578;51.568;6.932;2022-07-12T03:30:36;54986.06;;;-144.14;98.88
7075;BME280;3578;51.568;6.932;2022-07-12T03:33:04;55024.16;;;-144.14;98.80
7075;BME280;3578;51.568;6.932;2022-07-12T03:35:31;54986.06;;;-144.14;98.74
7075;BME280;3578;51.568;6.932;2022-07-12T03:37:58;55006.13;;;-144.14;98.64
7075;BME280;3578;51.568;6.932;2022-07-12T03:40:26;55028.16;;;-144.14;98.56
7075;BME280;3578;51.568;6.932;2022-07-12T03:42:53;55008.13;;;-144.14;98.59
7075;BME280;3578;51.568;6.932;2022-07-12T03:45:20;55014.13;;;-144.14;98.36
7075;BME280;3578;51.568;6.932;2022-07-12T03:47:48;55020.16;;;-144.14;98.55
7075;BME280;3578;51.568;6.932;2022-07-12T03:50:16;55038.19;;;-144.14;98.59
7075;BME280;3578;51.568;6.932;2022-07-12T03:52:43;55020.16;;;-144.14;98.50
7075;BME280;3578;51.568;6.932;2022-07-12T03:55:11;55058.25;;;-144.14;98.67
7075;BME280;3578;51.568;6.932;2022-07-12T03:57:40;55038.19;;;-144.14;98.50
7075;BME280;3578;51.568;6.932;2022-07-12T04:00:10;55024.16;;;-144.14;98.58
7075;BME280;3578;51.568;6.932;2022-07-12T04:02:38;55058.25;;;-144.14;98.65
7075;BME280;3578;51.568;6.932;2022-07-12T04:05:07;55082.31;;;-144.14;98.48
7075;BME280;3578;51.568;6.932;2022-07-12T04:07:35;55042.22;;;-144.14;98.77
7075;BME280;3578;51.568;6.932;2022-07-12T04:10:03;54996.09;;;-144.14;99.13
7075;BME280;3578;51.568;6.932;2022-07-12T04:12:31;55014.13;;;-144.14;99.58
7075;BME280;3578;51.568;6.932;2022-07-12T04:14:59;54982.06;;;-144.14;99.75
7075;BME280;3578;51.568;6.932;2022-07-12T04:17:26;55042.22;;;-144.14;99.59
7075;BME280;3578;51.568;6.932;2022-07-12T04:19:53;55042.22;;;-144.14;99.38
7075;BME280;3578;51.568;6.932;2022-07-12T04:22:20;55058.25;;;-144.14;99.31
7075;BME280;3578;51.568;6.932;2022-07-12T04:24:47;55072.28;;;-144.14;99.29
7075;BME280;3578;51.568;6.932;2022-07-12T04:27:14;55060.25;;;-144.14;99.06
7075;BME280;3578;51.568;6.932;2022-07-12T04:29:41;55076.28;;;-144.14;98.98
7075;BME280;3578;51.568;6.932;2022-07-12T04:32:10;55092.34;;;-144.14;98.98
7075;BME280;3578;51.568;6.932;2022-07-12T04:34:37;55088.31;;;-144.14;98.94
7075;BME280;3578;51.568;6.932;2022-07-12T04:37:04;55102.34;;;-144.14;98.94
7075;BME280;3578;51.568;6.932;2022-07-12T04:39:31;55098.34;;;-144.14;99.01
7075;BME280;3578;51.568;6.932;2022-07-12T04:41:58;55118.41;;;-144.14;99.06
7075;BME280;3578;51.568;6.932;2022-07-12T04:44:25;55128.44;;;-144.14;99.27
7075;BME280;3578;51.568;6.932;2022-07-12T04:46:52;55150.47;;;-144.14;99.55
7075;BME280;3578;51.568;6.932;2022-07-12T04:49:20;55086.31;;;-144.14;99.65
7075;BME280;3578;51.568;6.932;2022-07-12T04:51:47;55118.41;;;-144.14;99.85
7075;BME280;3578;51.568;6.932;2022-07-12T04:54:14;55126.41;;;-144.14;99.69
7075;BME280;3578;51.568;6.932;2022-07-12T04:56:42;55140.47;;;-144.14;99.82
7075;BME280;3578;51.568;6.932;2022-07-12T04:59:09;55144.47;;;-144.14;99.92
7075;BME280;3578;51.568;6.932;2022-07-12T05:01:36;55164.53;;;-144.14;100.00
7075;BME280;3578;51.568;6.932;2022-07-12T05:04:03;55194.59;;;-144.14;100.00
7075;BME280;3578;51.568;6.932;2022-07-12T05:06:32;55208.63;;;-144.14;100.00
7075;BME280;3578;51.568;6.932;2022-07-12T05:08:59;55230.69;;;-144.14;99.72
7075;BME280;3578;51.568;6.932;2022-07-12T05:11:26;55252.75;;;-144.14;99.61
7075;BME280;3578;51.568;6.932;2022-07-12T05:13:53;55272.81;;;-144.14;99.43
7075;BME280;3578;51.568;6.932;2022-07-12T05:16:20;55298.88;;;-144.14;99.48
7075;BME280;3578;51.568;6.932;2022-07-12T05:18:47;55262.78;;;-144.14;99.36
7075;BME280;3578;51.568;6.932;2022-07-12T05:21:14;55320.94;;;-144.14;99.34
7075;BME280;3578;51.568;6.932;2022-07-12T05:23:42;55326.94;;;-144.14;99.55
7075;BME280;3578;51.568;6.932;2022-07-12T05:26:09;55334.97;;;-144.14;100.00
7075;BME280;3578;51.568;6.932;2022-07-12T05:28:36;55361.03;;;-144.14;100.00
7075;BME280;3578;51.568;6.932;2022-07-12T05:31:03;55375.06;;;-144.14;100.00
7075;BME280;3578;51.568;6.932;2022-07-12T05:33:30;55377.09;;;-144.14;100.00
7075;BME280;3578;51.568;6.932;2022-07-12T05:35:57;55433.22;;;-144.14;100.00
7075;BME280;3578;51.568;6.932;2022-07-12T05:38:24;55429.22;;;-144.14;100.00
7075;BME280;3578;51.568;6.932;2022-07-12T05:40:53;55465.31;;;-144.14;100.00
7075;BME280;3578;51.568;6.932;2022-07-12T05:43:20;55475.34;;;-144.14;100.00
7075;BME280;3578;51.568;6.932;2022-07-12T05:45:47;55565.59;;;-144.14;100.00
7075;BME280;3578;51.568;6.932;2022-07-12T05:48:14;55587.66;;;-144.14;100.00
7075;BME280;3578;51.568;6.932;2022-07-12T05:50:41;55639.78;;;-144.14;100.00
7075;BME280;3578;51.568;6.932;2022-07-12T05:53:08;55651.81;;;-144.14;100.00
7075;BME280;3578;51.568;6.932;2022-07-12T05:55:50;55712.00;;;-144.14;100.00
7075;BME280;3578;51.568;6.932;2022-07-12T05:58:20;55736.06;;;-144.14;100.00
7075;BME280;3578;51.568;6.932;2022-07-12T06:00:47;55766.13;;;-144.14;100.00
7075;BME280;3578;51.568;6.932;2022-07-12T06:03:14;55730.03;;;-144.14;100.00
7075;BME280;3578;51.568;6.932;2022-07-12T06:05:42;55792.22;;;-144.14;100.00
7075;BME280;3578;51.568;6.932;2022-07-12T06:08:09;55792.22;;;-144.14;100.00
7075;BME280;3578;51.568;6.932;2022-07-12T06:10:36;55856.41;;;-144.14;100.00
7075;BME280;3578;51.568;6.932;2022-07-12T06:13:03;55896.50;;;-144.14;100.00
7075;BME280;3578;51.568;6.932;2022-07-12T06:15:32;55970.72;;;-144.14;100.00
7075;BME280;3578;51.568;6.932;2022-07-12T06:17:59;56028.88;;;-144.14;99.54
7075;BME280;3578;51.568;6.932;2022-07-12T06:20:26;56085.03;;;-144.14;98.97
7075;BME280;3578;51.568;6.932;2022-07-12T06:22:53;56105.09;;;-144.14;99.10
7075;BME280;3578;51.568;6.932;2022-07-12T06:25:21;56133.19;;;-144.14;98.83
7075;BME280;3578;51.568;6.932;2022-07-12T06:27:48;56183.34;;;-144.14;98.48
7075;BME280;3578;51.568;6.932;2022-07-12T06:30:17;56247.50;;;-144.14;98.19
7075;BME280;3578;51.568;6.932;2022-07-12T06:32:46;56235.47;;;-144.14;97.81
7075;BME280;3578;51.568;6.932;2022-07-12T06:35:14;56277.59;;;-144.14;97.89
7075;BME280;3578;51.568;6.932;2022-07-12T06:37:42;56285.63;;;-144.14;97.66
7075;BME280;3578;51.568;6.932;2022-07-12T06:40:10;56345.81;;;-144.14;97.72
7075;BME280;3578;51.568;6.932;2022-07-12T06:42:38;56442.09;;;-144.14;97.93
7075;BME280;3578;51.568;6.932;2022-07-12T06:45:06;56550.41;;;-144.14;96.20
7075;BME280;3578;51.568;6.932;2022-07-12T06:47:33;56618.63;;;-144.14;95.43
7075;BME280;3578;51.568;6.932;2022-07-12T06:50:02;56688.84;;;-144.14;94.76
7075;BME280;3578;51.568;6.932;2022-07-12T06:52:29;56739.00;;;-144.14;93.94
7075;BME280;3578;51.568;6.932;2022-07-12T06:54:56;56730.97;;;-144.14;93.90
7075;BME280;3578;51.568;6.932;2022-07-12T06:57:24;56901.50;;;-144.14;93.95
7075;BME280;3578;51.568;6.932;2022-07-12T06:59:52;57102.13;;;-144.14;92.53
7075;BME280;3578;51.568;6.932;2022-07-12T07:02:19;57284.72;;;-144.14;91.20
7075;BME280;3578;51.568;6.932;2022-07-12T07:04:46;57328.84;;;-144.14;88.90
7075;BME280;3578;51.568;6.932;2022-07-12T07:07:14;57393.06;;;-144.14;89.02
7075;BME280;3578;51.568;6.932;2022-07-12T07:09:41;57724.16;;;-144.14;86.73
7075;BME280;3578;51.568;6.932;2022-07-12T07:12:09;57702.09;;;-144.14;85.01
7075;BME280;3578;51.568;6.932;2022-07-12T07:14:36;57726.16;;;-144.14;83.94
7075;BME280;3578;51.568;6.932;2022-07-12T07:17:03;57678.00;;;-144.14;84.79
7075;BME280;3578;51.568;6.932;2022-07-12T07:19:30;57569.63;;;-144.14;84.06
7075;BME280;3578;51.568;6.932;2022-07-12T07:21:58;57625.81;;;-144.14;82.24
7075;BME280;3578;51.568;6.932;2022-07-12T07:24:26;57720.13;;;-144.14;84.79
7075;BME280;3578;51.568;6.932;2022-07-12T07:26:53;57674.00;;;-144.14;84.90
7075;BME280;3578;51.568;6.932;2022-07-12T07:29:20;57772.31;;;-144.14;83.30
7075;BME280;3578;51.568;6.932;2022-07-12T07:32:06;57826.50;;;-144.14;82.88
7075;BME280;3578;51.568;6.932;2022-07-12T07:34:33;57848.56;;;-144.14;81.10
7075;BME280;3578;51.568;6.932;2022-07-12T07:37:00;57874.66;;;-144.14;79.78
7075;BME280;3578;51.568;6.932;2022-07-12T07:39:29;57882.69;;;-144.14;79.18
7075;BME280;3578;51.568;6.932;2022-07-12T07:41:56;57991.06;;;-144.14;78.75
7075;BME280;3578;51.568;6.932;2022-07-12T07:44:23;57977.00;;;-144.14;78.61
7075;BME280;3578;51.568;6.932;2022-07-12T07:46:50;58059.28;;;-144.14;79.57
7075;BME280;3578;51.568;6.932;2022-07-12T07:49:17;58013.13;;;-144.14;79.78
7075;BME280;3578;51.568;6.932;2022-07-12T07:51:44;58125.53;;;-144.14;79.19
7075;BME280;3578;51.568;6.932;2022-07-12T07:54:11;58147.59;;;-144.14;79.99
7075;BME280;3578;51.568;6.932;2022-07-12T07:56:39;58075.34;;;-144.14;78.82
7075;BME280;3578;51.568;6.932;2022-07-12T07:59:07;58099.44;;;-144.14;80.11
7075;BME280;3578;51.568;6.932;2022-07-12T08:01:34;58013.13;;;-144.14;76.82
7075;BME280;3578;51.568;6.932;2022-07-12T08:04:12;57934.88;;;-144.14;76.72
7075;BME280;3578;51.568;6.932;2022-07-12T08:06:39;57952.94;;;-144.14;76.08
7075;BME280;3578;51.568;6.932;2022-07-12T08:09:07;57920.81;;;-144.14;76.69
7075;BME280;3578;51.568;6.932;2022-07-12T08:11:34;57922.84;;;-144.14;76.24
7075;BME280;3578;51.568;6.932;2022-07-12T08:14:04;57979.03;;;-144.14;77.81
7075;BME280;3578;51.568;6.932;2022-07-12T08:16:31;58027.19;;;-144.14;76.24
7075;BME280;3578;51.568;6.932;2022-07-12T08:18:58;57948.91;;;-144.14;73.07
7075;BME280;3578;51.568;6.932;2022-07-12T08:21:26;57874.66;;;-144.14;71.04
7075;BME280;3578;51.568;6.932;2022-07-12T08:23:53;57866.63;;;-144.14;74.30
7075;BME280;3578;51.568;6.932;2022-07-12T08:26:21;57896.75;;;-144.14;71.87
7075;BME280;3578;51.568;6.932;2022-07-12T08:28:48;57820.47;;;-144.14;75.98
7075;BME280;3578;51.568;6.932;2022-07-12T08:31:16;57928.84;;;-144.14;74.46
7075;BME280;3578;51.568;6.932;2022-07-12T08:33:43;58011.13;;;-144.14;74.42
7075;BME280;3578;51.568;6.932;2022-07-12T08:36:10;58045.25;;;-144.14;74.69
7075;BME280;3578;51.568;6.932;2022-07-12T08:38:38;57922.84;;;-144.14;73.91
7075;BME280;3578;51.568;6.932;2022-07-12T08:41:07;58001.09;;;-144.14;74.86
7075;BME280;3578;51.568;6.932;2022-07-12T08:43:36;57936.88;;;-144.14;72.17
7075;BME280;3578;51.568;6.932;2022-07-12T08:46:04;57878.69;;;-144.14;71.61
7075;BME280;3578;51.568;6.932;2022-07-12T08:48:33;57858.59;;;-144.14;71.54
7075;BME280;3578;51.568;6.932;2022-07-12T08:51:02;57864.63;;;-144.14;72.47
7075;BME280;3578;51.568;6.932;2022-07-12T08:53:30;57888.72;;;-144.14;70.58
7075;BME280;3578;51.568;6.932;2022-07-12T08:55:58;57991.06;;;-144.14;71.30
7075;BME280;3578;51.568;6.932;2022-07-12T08:58:25;58025.19;;;-144.14;71.71
7075;BME280;3578;51.568;6.932;2022-07-12T09:00:52;58015.16;;;-144.14;71.53
7075;BME280;3578;51.568;6.932;2022-07-12T09:03:19;58073.34;;;-144.14;72.01
7075;BME280;3578;51.568;6.932;2022-07-12T09:05:53;58093.41;;;-144.14;70.35
7075;BME280;3578;51.568;6.932;2022-07-12T09:08:28;58135.56;;;-144.14;68.24
7075;BME280;3578;51.568;6.932;2022-07-12T09:10:58;58077.34;;;-144.14;69.02
7075;BME280;3578;51.568;6.932;2022-07-12T09:13:49;58217.84;;;-144.14;72.07
7075;BME280;3578;51.568;6.932;2022-07-12T09:16:19;58264.00;;;-144.14;68.44
7075;BME280;3578;51.568;6.932;2022-07-12T09:18:47;58280.06;;;-144.14;68.04
7075;BME280;3578;51.568;6.932;2022-07-12T09:21:26;58358.34;;;-144.14;67.22
7075;BME280;3578;51.568;6.932;2022-07-12T09:23:55;58394.47;;;-144.14;64.02
7075;BME280;3578;51.568;6.932;2022-07-12T09:26:23;58430.59;;;-144.14;65.19
7075;BME280;3578;51.568;6.932;2022-07-12T09:28:50;58318.19;;;-144.14;62.89
7075;BME280;3578;51.568;6.932;2022-07-12T09:31:18;58362.34;;;-144.14;61.86
7075;BME280;3578;51.568;6.932;2022-07-12T09:34:02;58324.22;;;-144.14;63.66
7075;BME280;3578;51.568;6.932;2022-07-12T09:36:58;58404.50;;;-144.14;62.66
7075;BME280;3578;51.568;6.932;2022-07-12T09:39:25;58474.75;;;-144.14;61.49
7075;BME280;3578;51.568;6.932;2022-07-12T09:41:54;58532.97;;;-144.14;61.51
7075;BME280;3578;51.568;6.932;2022-07-12T09:44:22;58599.22;;;-144.14;59.35
7075;BME280;3578;51.568;6.932;2022-07-12T09:46:50;58581.16;;;-144.14;55.82
7075;BME280;3578;51.568;6.932;2022-07-12T09:49:19;58607.25;;;-144.14;55.56
7075;BME280;3578;51.568;6.932;2022-07-12T09:51:47;58591.19;;;-144.14;54.47
7075;BME280;3578;51.568;6.932;2022-07-12T09:54:22;58551.03;;;-144.14;54.75
7075;BME280;3578;51.568;6.932;2022-07-12T09:56:53;58543.00;;;-144.14;53.28
7075;BME280;3578;51.568;6.932;2022-07-12T09:59:24;58549.03;;;-144.14;49.31
7075;BME280;3578;51.568;6.932;2022-07-12T10:01:55;58693.56;;;-144.14;48.60
7075;BME280;3578;51.568;6.932;2022-07-12T10:04:29;58715.63;;;-144.14;49.55
7075;BME280;3578;51.568;6.932;2022-07-12T10:06:57;58713.63;;;-144.14;49.00
7075;BME280;3578;51.568;6.932;2022-07-12T10:09:27;58645.38;;;-144.14;48.75
7075;BME280;3578;51.568;6.932;2022-07-12T10:11:54;58629.31;;;-144.14;49.66
7075;BME280;3578;51.568;6.932;2022-07-12T10:14:22;58669.47;;;-144.14;49.78
7075;BME280;3578;51.568;6.932;2022-07-12T10:16:51;58683.50;;;-144.14;48.74
7075;BME280;3578;51.568;6.932;2022-07-12T10:19:24;58711.63;;;-144.14;47.96
7075;BME280;3578;51.568;6.932;2022-07-12T10:21:53;58627.31;;;-144.14;47.86
7075;BME280;3578;51.568;6.932;2022-07-12T10:24:54;58669.47;;;-144.14;48.00
7075;BME280;3578;51.568;6.932;2022-07-12T10:27:32;58635.34;;;-144.14;48.60
7075;BME280;3578;51.568;6.932;2022-07-12T10:30:23;58627.31;;;-144.14;48.75
7075;BME280;3578;51.568;6.932;2022-07-12T10:32:52;58577.13;;;-144.14;48.95
7075;BME280;3578;51.568;6.932;2022-07-12T10:35:24;58637.34;;;-144.14;49.08
7075;BME280;3578;51.568;6.932;2022-07-12T10:38:18;58671.47;;;-144.14;48.88
7075;BME280;3578;51.568;6.932;2022-07-12T10:40:50;58649.38;;;-144.14;48.37
7075;BME280;3578;51.568;6.932;2022-07-12T10:43:25;58669.47;;;-144.14;47.80
7075;BME280;3578;51.568;6.932;2022-07-12T10:46:21;58575.13;;;-144.14;46.45
7075;BME280;3578;51.568;6.932;2022-07-12T10:48:49;58599.22;;;-144.14;47.44
7075;BME280;3578;51.568;6.932;2022-07-12T10:51:18;58625.31;;;-144.14;47.92
7075;BME280;3578;51.568;6.932;2022-07-12T10:53:47;58687.53;;;-144.14;46.78
7075;BME280;3578;51.568;6.932;2022-07-12T10:56:19;58783.88;;;-144.14;46.58
7075;BME280;3578;51.568;6.932;2022-07-12T10:58:49;58830.06;;;-144.14;45.01
7075;BME280;3578;51.568;6.932;2022-07-12T11:01:20;58791.91;;;-144.14;44.25
7075;BME280;3578;51.568;6.932;2022-07-12T11:03:49;58801.94;;;-144.14;47.29
7075;BME280;3578;51.568;6.932;2022-07-12T11:06:19;58673.47;;;-144.14;46.89
7075;BME280;3578;51.568;6.932;2022-07-12T11:08:55;58803.94;;;-144.14;48.09
7075;BME280;3578;51.568;6.932;2022-07-12T11:11:27;58755.78;;;-144.14;49.35
7075;BME280;3578;51.568;6.932;2022-07-12T11:13:55;58747.75;;;-144.14;48.07
7075;BME280;3578;51.568;6.932;2022-07-12T11:16:23;58717.63;;;-144.14;46.25
7075;BME280;3578;51.568;6.932;2022-07-12T11:18:51;58761.81;;;-144.14;45.72
7075;BME280;3578;51.568;6.932;2022-07-12T11:21:19;58737.72;;;-144.14;44.91
7075;BME280;3578;51.568;6.932;2022-07-12T11:23:47;58850.13;;;-144.14;48.01
7075;BME280;3578;51.568;6.932;2022-07-12T11:26:14;58842.09;;;-144.14;47.64
7075;BME280;3578;51.568;6.932;2022-07-12T11:28:45;58858.16;;;-144.14;48.28
7075;BME280;3578;51.568;6.932;2022-07-12T11:31:14;58818.00;;;-144.14;45.75
7075;BME280;3578;51.568;6.932;2022-07-12T11:33:43;58793.91;;;-144.14;45.20
7075;BME280;3578;51.568;6.932;2022-07-12T11:36:12;58950.50;;;-144.14;46.02
7075;BME280;3578;51.568;6.932;2022-07-12T11:38:42;58994.66;;;-144.14;43.61
7075;BME280;3578;51.568;6.932;2022-07-12T11:41:12;59083.00;;;-144.14;43.49
7075;BME280;3578;51.568;6.932;2022-07-12T11:43:39;59127.16;;;-144.14;42.09
7075;BME280;3578;51.568;6.932;2022-07-12T11:46:09;59153.25;;;-144.14;42.54
7075;BME280;3578;51.568;6.932;2022-07-12T11:48:37;59151.25;;;-144.14;41.99
7075;BME280;3578;51.568;6.932;2022-07-12T11:51:07;59123.16;;;-144.14;42.21
7075;BME280;3578;51.568;6.932;2022-07-12T11:53:35;59153.25;;;-144.14;41.07
7075;BME280;3578;51.568;6.932;2022-07-12T11:56:05;59123.16;;;-144.14;40.01
7075;BME280;3578;51.568;6.932;2022-07-12T11:58:34;59175.34;;;-144.14;40.16
7075;BME280;3578;51.568;6.932;2022-07-12T12:01:04;59251.63;;;-144.14;38.32
7075;BME280;3578;51.568;6.932;2022-07-12T12:03:42;59388.16;;;-144.14;38.91
7075;BME280;3578;51.568;6.932;2022-07-12T12:06:09;59494.56;;;-144.14;38.77
7075;BME280;3578;51.568;6.932;2022-07-12T12:08:36;59552.78;;;-144.14;39.72
7075;BME280;3578;51.568;6.932;2022-07-12T12:11:04;59615.03;;;-144.14;41.01
7075;BME280;3578;51.568;6.932;2022-07-12T12:13:31;59464.44;;;-144.14;40.91
7075;BME280;3578;51.568;6.932;2022-07-12T12:15:59;59450.38;;;-144.14;40.80
7075;BME280;3578;51.568;6.932;2022-07-12T12:18:34;59494.56;;;-144.14;40.92
7075;BME280;3578;51.568;6.932;2022-07-12T12:21:03;59462.44;;;-144.14;40.05
7075;BME280;3578;51.568;6.932;2022-07-12T12:23:31;59418.28;;;-144.14;40.11
7075;BME280;3578;51.568;6.932;2022-07-12T12:26:13;59524.69;;;-144.14;40.49
7075;BME280;3578;51.568;6.932;2022-07-12T12:28:45;59627.06;;;-144.14;40.39
7075;BME280;3578;51.568;6.932;2022-07-12T12:31:14;59617.03;;;-144.14;40.55
7075;BME280;3578;51.568;6.932;2022-07-12T12:33:44;59661.22;;;-144.14;39.94
7075;BME280;3578;51.568;6.932;2022-07-12T12:36:17;59683.31;;;-144.14;40.54
7075;BME280;3578;51.568;6.932;2022-07-12T12:38:47;59767.63;;;-144.14;40.67
7075;BME280;3578;51.568;6.932;2022-07-12T12:41:14;59763.63;;;-144.14;40.09
7075;BME280;3578;51.568;6.932;2022-07-12T12:43:42;59815.81;;;-144.14;40.63
7075;BME280;3578;51.568;6.932;2022-07-12T12:46:09;59825.88;;;-144.14;39.94
7075;BME280;3578;51.568;6.932;2022-07-12T12:48:36;59813.81;;;-144.14;40.01
7075;BME280;3578;51.568;6.932;2022-07-12T12:51:06;59866.03;;;-144.14;39.27
7075;BME280;3578;51.568;6.932;2022-07-12T12:53:35;59886.09;;;-144.14;39.39
7075;BME280;3578;51.568;6.932;2022-07-12T12:56:07;59894.13;;;-144.14;39.22
7075;BME280;3578;51.568;6.932;2022-07-12T12:58:36;59934.28;;;-144.14;38.76
7075;BME280;3578;51.568;6.932;2022-07-12T13:01:04;60094.94;;;-144.14;40.03
7075;BME280;3578;51.568;6.932;2022-07-12T13:03:31;60026.66;;;-144.14;40.34
7075;BME280;3578;51.568;6.932;2022-07-12T13:05:59;59787.72;;;-144.14;40.13
7075;BME280;3578;51.568;6.932;2022-07-12T13:08:28;59805.78;;;-144.14;38.58